Time;durP1;ratioP1;P1;durP2;ratioP2;P2;SDS_P1;SDS_P2;PMS_P1;PMS_P2;Temp;Humidity;BMP_temperature;BMP_pressure;BME280_temperature;BME280_humidity;BME280_pressure;Samples;Min_cycle;Max_cycle;Signal;HPM_P1;HPM_P2
2022/08/25 00:01:09;;;;;;;;;2.33;2.33;;;;;;;;5073182;27;45426;-74
2022/08/25 00:03:34;;;;;;;;;2.33;2.00;;;;;;;;5084685;27;45400;-74
2022/08/25 00:06:00;;;;;;;;;3.33;3.33;;;;;;;;5097744;27;45271;-73
2022/08/25 00:08:25;;;;;;;;;3.33;2.67;;;;;;;;5094441;27;46266;-74
2022/08/25 00:10:50;;;;;;;;;2.33;2.33;;;;;;;;5089023;27;45255;-74
2022/08/25 00:13:15;;;;;;;;;2.00;2.00;;;;;;;;5098101;27;45245;-73
2022/08/25 00:15:40;;;;;;;;;1.33;1.33;;;;;;;;5088338;27;45419;-73
2022/08/25 00:18:06;;;;;;;;;2.00;2.00;;;;;;;;5078039;27;46884;-74
2022/08/25 00:20:31;;;;;;;;;1.00;1.00;;;;;;;;5086892;27;45366;-73
2022/08/25 00:22:56;;;;;;;;;3.00;3.00;;;;;;;;5085007;27;45324;-73
2022/08/25 00:25:22;;;;;;;;;4.00;2.00;;;;;;;;5081919;27;45400;-73
2022/08/25 00:27:48;;;;;;;;;3.00;3.00;;;;;;;;5093435;27;46893;-73
2022/08/25 00:30:15;;;;;;;;;1.67;1.67;;;;;;;;5097810;27;45431;-74
2022/08/25 00:32:40;;;;;;;;;2.00;2.00;;;;;;;;5097752;27;45501;-73
2022/08/25 00:35:06;;;;;;;;;2.33;2.33;;;;;;;;5078046;27;45425;-73
2022/08/25 00:37:31;;;;;;;;;2.00;2.00;;;;;;;;5079663;27;46049;-73
2022/08/25 00:39:57;;;;;;;;;3.00;3.00;;;;;;;;5077606;27;45943;-73
2022/08/25 00:42:23;;;;;;;;;2.67;2.67;;;;;;;;5097594;27;45185;-73
2022/08/25 00:44:48;;;;;;;;;2.00;2.00;;;;;;;;5087507;27;45368;-73
2022/08/25 00:47:13;;;;;;;;;2.00;2.00;;;;;;;;5096985;27;46282;-72
2022/08/25 00:49:43;;;;;;;;;1.00;1.00;;;;;;;;5097364;27;45448;-73
2022/08/25 00:52:13;;;;;;;;;1.33;1.33;;;;;;;;5094180;27;45484;-74
2022/08/25 00:54:53;;;;;;;;;3.33;2.33;;;;;;;;5080405;27;45474;-74
2022/08/25 00:57:21;;;;;;;;;2.00;2.00;;;;;;;;5097246;27;45419;-73
2022/08/25 00:59:47;;;;;;;;;0.33;0.33;;;;;;;;5091277;27;45459;-73
2022/08/25 01:02:14;;;;;;;;;1.00;1.00;;;;;;;;5082968;27;45352;-74
2022/08/25 01:04:39;;;;;;;;;3.33;3.33;;;;;;;;5093085;27;45312;-74
2022/08/25 01:07:06;;;;;;;;;2.00;2.00;;;;;;;;5088512;27;45394;-74
2022/08/25 01:09:31;;;;;;;;;2.00;2.00;;;;;;;;5090848;27;45232;-74
2022/08/25 01:11:57;;;;;;;;;2.00;2.00;;;;;;;;5095662;27;45357;-73
2022/08/25 01:14:23;;;;;;;;;2.67;2.67;;;;;;;;5089260;27;45541;-73
2022/08/25 01:16:48;;;;;;;;;2.00;2.00;;;;;;;;5083102;27;46079;-73
2022/08/25 01:19:14;;;;;;;;;2.00;2.00;;;;;;;;5091484;27;45446;-74
2022/08/25 01:21:44;;;;;;;;;3.00;2.67;;;;;;;;5093072;27;45595;-73
2022/08/25 01:24:12;;;;;;;;;3.67;2.00;;;;;;;;5088702;27;45447;-73
2022/08/25 01:26:38;;;;;;;;;2.00;1.00;;;;;;;;5092021;27;46157;-73
2022/08/25 01:31:49;;;;;;;;;2.67;2.33;;;;;;;;5092592;27;45383;-73
2022/08/25 01:34:16;;;;;;;;;2.00;2.00;;;;;;;;5096639;27;45380;-74
2022/08/25 01:36:42;;;;;;;;;2.33;2.33;;;;;;;;5092359;27;46053;-73
2022/08/25 01:39:08;;;;;;;;;2.00;2.00;;;;;;;;5093836;27;45502;-74
2022/08/25 01:41:33;;;;;;;;;3.00;1.33;;;;;;;;5084563;27;45482;-73
2022/08/25 01:43:58;;;;;;;;;3.33;2.67;;;;;;;;5088313;27;45401;-73
2022/08/25 01:46:24;;;;;;;;;4.33;2.33;;;;;;;;5096090;27;45374;-73
2022/08/25 01:48:49;;;;;;;;;2.33;2.33;;;;;;;;5096704;27;45288;-73
2022/08/25 01:51:17;;;;;;;;;2.33;2.33;;;;;;;;5096065;27;45442;-74
2022/08/25 01:53:43;;;;;;;;;2.67;2.67;;;;;;;;5095445;27;45374;-74
2022/08/25 01:56:13;;;;;;;;;1.33;1.33;;;;;;;;5092026;27;46196;-73
2022/08/25 01:58:40;;;;;;;;;2.33;2.33;;;;;;;;5087393;27;45373;-73
2022/08/25 02:01:06;;;;;;;;;3.00;3.00;;;;;;;;5090482;27;45445;-74
2022/08/25 02:03:32;;;;;;;;;3.00;3.00;;;;;;;;5096347;27;45501;-74
2022/08/25 02:05:57;;;;;;;;;1.00;1.00;;;;;;;;5080256;27;46250;-73
2022/08/25 02:08:23;;;;;;;;;1.00;1.00;;;;;;;;5080556;27;45363;-73
2022/08/25 02:10:48;;;;;;;;;2.00;2.00;;;;;;;;5096591;27;45400;-73
2022/08/25 02:13:14;;;;;;;;;1.67;1.67;;;;;;;;5096086;27;45492;-73
2022/08/25 02:15:45;;;;;;;;;2.00;2.00;;;;;;;;5090341;27;46141;-74
2022/08/25 02:18:10;;;;;;;;;1.33;1.33;;;;;;;;5076812;27;45234;-73
2022/08/25 02:20:36;;;;;;;;;3.00;3.00;;;;;;;;5091973;27;45350;-73
2022/08/25 02:23:02;;;;;;;;;2.33;2.33;;;;;;;;5090182;27;45508;-74
2022/08/25 02:25:27;;;;;;;;;1.33;1.33;;;;;;;;5085128;27;46264;-74
2022/08/25 02:27:52;;;;;;;;;0.67;0.67;;;;;;;;5094492;27;45423;-73
2022/08/25 02:30:18;;;;;;;;;1.00;1.00;;;;;;;;5088813;27;45292;-73
2022/08/25 02:32:43;;;;;;;;;2.67;2.33;;;;;;;;5095921;27;45378;-73
2022/08/25 02:35:09;;;;;;;;;2.00;2.00;;;;;;;;5094312;27;46300;-73
2022/08/25 02:37:34;;;;;;;;;2.00;2.00;;;;;;;;5093061;27;45347;-73
2022/08/25 02:39:59;;;;;;;;;2.33;2.33;;;;;;;;5087388;27;45465;-73
2022/08/25 02:42:25;;;;;;;;;4.67;2.00;;;;;;;;5086041;27;45315;-73
2022/08/25 02:44:50;;;;;;;;;2.00;2.00;;;;;;;;5095579;27;46152;-73
2022/08/25 02:47:16;;;;;;;;;1.00;1.00;;;;;;;;5083091;27;45493;-73
2022/08/25 02:49:41;;;;;;;;;2.33;2.33;;;;;;;;5094842;27;45411;-73
2022/08/25 02:52:07;;;;;;;;;3.00;3.00;;;;;;;;5093240;27;45270;-73
2022/08/25 02:54:32;;;;;;;;;1.33;1.33;;;;;;;;5084253;27;46100;-73
2022/08/25 02:56:58;;;;;;;;;3.67;2.00;;;;;;;;5084051;27;45351;-73
2022/08/25 02:59:23;;;;;;;;;1.33;1.33;;;;;;;;5080453;27;45320;-73
2022/08/25 03:01:48;;;;;;;;;2.00;2.00;;;;;;;;5089999;27;45276;-74
2022/08/25 03:04:13;;;;;;;;;3.00;3.00;;;;;;;;5098384;27;45523;-73
2022/08/25 03:06:39;;;;;;;;;2.00;2.00;;;;;;;;5093070;27;45260;-73
2022/08/25 03:09:05;;;;;;;;;2.00;2.00;;;;;;;;5090850;27;45284;-73
2022/08/25 03:11:30;;;;;;;;;4.67;4.00;;;;;;;;5078862;27;45487;-73
2022/08/25 03:13:55;;;;;;;;;1.33;1.33;;;;;;;;5080476;27;46201;-73
2022/08/25 03:16:21;;;;;;;;;2.67;2.67;;;;;;;;5087694;27;45389;-73
2022/08/25 03:18:47;;;;;;;;;2.33;2.00;;;;;;;;5088860;27;45411;-73
2022/08/25 03:21:12;;;;;;;;;2.00;2.00;;;;;;;;5080875;27;45570;-73
2022/08/25 03:23:38;;;;;;;;;2.00;2.00;;;;;;;;5090548;27;46136;-73
2022/08/25 03:28:47;;;;;;;;;5.00;3.00;;;;;;;;5086031;27;45446;-73
2022/08/25 03:31:12;;;;;;;;;2.33;2.33;;;;;;;;5077885;27;45396;-73
2022/08/25 03:33:38;;;;;;;;;1.33;1.33;;;;;;;;5091266;27;46083;-73
2022/08/25 03:36:04;;;;;;;;;3.00;3.00;;;;;;;;5094022;27;45455;-73
2022/08/25 03:38:29;;;;;;;;;1.00;1.00;;;;;;;;5098861;27;45312;-73
2022/08/25 03:40:55;;;;;;;;;2.00;2.00;;;;;;;;5084220;27;45352;-73
2022/08/25 03:43:20;;;;;;;;;2.00;2.00;;;;;;;;5098441;27;46046;-73
2022/08/25 03:45:46;;;;;;;;;1.33;1.33;;;;;;;;5098497;27;45478;-73
2022/08/25 03:48:11;;;;;;;;;2.33;2.00;;;;;;;;5098881;27;45279;-73
2022/08/25 03:50:43;;;;;;;;;3.00;3.00;;;;;;;;5098819;27;45339;-73
2022/08/25 03:53:08;;;;;;;;;2.00;1.00;;;;;;;;5084165;27;47004;-73
2022/08/25 03:55:33;;;;;;;;;3.67;3.67;;;;;;;;5093044;27;45407;-73
2022/08/25 03:57:58;;;;;;;;;2.00;2.00;;;;;;;;5095377;27;45411;-73
2022/08/25 04:00:24;;;;;;;;;4.00;3.67;;;;;;;;5086911;27;45387;-73
2022/08/25 04:02:49;;;;;;;;;3.33;2.00;;;;;;;;5085025;27;47199;-73
2022/08/25 04:05:16;;;;;;;;;3.67;2.67;;;;;;;;5118810;27;45381;-73
2022/08/25 04:07:41;;;;;;;;;3.00;1.33;;;;;;;;5118710;27;45287;-73
2022/08/25 04:10:08;;;;;;;;;3.00;3.00;;;;;;;;5118790;27;45407;-73
2022/08/25 04:12:34;;;;;;;;;2.00;1.00;;;;;;;;5118426;27;45363;-73
2022/08/25 04:15:00;;;;;;;;;2.33;0.67;;;;;;;;5117855;27;45392;-73
2022/08/25 04:17:25;;;;;;;;;4.67;3.00;;;;;;;;5107782;27;45433;-73
2022/08/25 04:19:50;;;;;;;;;2.00;2.00;;;;;;;;5118589;27;45380;-73
2022/08/25 04:22:15;;;;;;;;;1.67;1.67;;;;;;;;5118624;27;46011;-73
2022/08/25 04:24:41;;;;;;;;;2.00;2.00;;;;;;;;5108490;27;45313;-73
2022/08/25 04:27:06;;;;;;;;;4.00;2.33;;;;;;;;5101462;27;45457;-73
2022/08/25 04:29:31;;;;;;;;;3.00;3.00;;;;;;;;5118896;27;45304;-73
2022/08/25 04:31:56;;;;;;;;;3.00;1.67;;;;;;;;5115393;27;46642;-74
2022/08/25 04:34:23;;;;;;;;;3.00;2.67;;;;;;;;5116957;27;45563;-73
2022/08/25 04:36:49;;;;;;;;;1.00;1.00;;;;;;;;5110047;27;45480;-73
2022/08/25 04:39:15;;;;;;;;;1.00;1.00;;;;;;;;5101500;27;45578;-73
2022/08/25 04:41:40;;;;;;;;;2.00;2.00;;;;;;;;5106687;27;46372;-73
2022/08/25 04:44:05;;;;;;;;;2.00;2.00;;;;;;;;5114268;27;45490;-73
2022/08/25 04:46:32;;;;;;;;;3.00;3.00;;;;;;;;5118394;27;46022;-73
2022/08/25 04:48:58;;;;;;;;;2.50;2.50;;;;;;;;5118076;27;45614;-74
2022/08/25 04:51:28;;;;;;;;;2.67;2.67;;;;;;;;5117831;27;45364;-73
2022/08/25 04:53:54;;;;;;;;;3.33;3.33;;;;;;;;5114720;27;45431;-73
2022/08/25 04:56:20;;;;;;;;;2.33;2.33;;;;;;;;5114408;27;45333;-73
2022/08/25 04:58:46;;;;;;;;;3.00;3.00;;;;;;;;5117960;27;45243;-73
2022/08/25 05:01:18;;;;;;;;;2.33;2.33;;;;;;;;5118087;27;46236;-73
2022/08/25 05:03:44;;;;;;;;;2.00;2.00;;;;;;;;5098415;27;45364;-73
2022/08/25 05:06:10;;;;;;;;;3.00;3.00;;;;;;;;5078924;27;45339;-73
2022/08/25 05:08:36;;;;;;;;;2.00;2.00;;;;;;;;5097096;27;45429;-73
2022/08/25 05:11:08;;;;;;;;;2.00;2.00;;;;;;;;5097299;27;46162;-73
2022/08/25 05:13:34;;;;;;;;;1.33;1.33;;;;;;;;5097080;27;45339;-73
2022/08/25 05:15:59;;;;;;;;;2.00;2.00;;;;;;;;5088880;27;45356;-73
2022/08/25 05:18:26;;;;;;;;;3.00;2.00;;;;;;;;5094537;27;45399;-73
2022/08/25 05:20:52;;;;;;;;;1.33;1.33;;;;;;;;5096928;27;46174;-73
2022/08/25 05:23:18;;;;;;;;;1.00;1.00;;;;;;;;5082058;27;45502;-73
2022/08/25 05:25:43;;;;;;;;;2.67;1.67;;;;;;;;5085207;27;45415;-74
2022/08/25 05:28:08;;;;;;;;;2.00;2.00;;;;;;;;5097028;27;45416;-73
2022/08/25 05:30:36;;;;;;;;;1.67;1.67;;;;;;;;5091970;27;46049;-73
2022/08/25 05:33:03;;;;;;;;;2.33;2.33;;;;;;;;5089249;27;45414;-73
2022/08/25 05:35:28;;;;;;;;;3.00;2.33;;;;;;;;5086172;27;45409;-73
2022/08/25 05:37:56;;;;;;;;;0.67;0.67;;;;;;;;5080176;27;45498;-72
2022/08/25 05:40:21;;;;;;;;;1.33;1.33;;;;;;;;5088460;27;46391;-73
2022/08/25 05:42:46;;;;;;;;;2.67;2.67;;;;;;;;5089668;27;45470;-73
2022/08/25 05:45:12;;;;;;;;;2.00;2.00;;;;;;;;5096747;27;45418;-73
2022/08/25 05:47:37;;;;;;;;;2.00;2.00;;;;;;;;5096299;27;45450;-78
2022/08/25 05:50:03;;;;;;;;;2.00;2.00;;;;;;;;5096534;27;46632;-79
2022/08/25 05:52:28;;;;;;;;;3.00;3.00;;;;;;;;5096296;27;45366;-73
2022/08/25 05:54:53;;;;;;;;;2.00;2.00;;;;;;;;5090926;27;45578;-75
2022/08/25 05:57:18;;;;;;;;;1.00;1.00;;;;;;;;5084866;27;45503;-74
2022/08/25 05:59:44;;;;;;;;;3.67;3.67;;;;;;;;5093681;27;45358;-74
2022/08/25 06:04:53;;;;;;;;;15.00;11.00;;;;;;;;5096376;27;45354;-74
2022/08/25 06:07:18;;;;;;;;;9.67;9.67;;;;;;;;5096230;27;45680;-73
2022/08/25 06:09:45;;;;;;;;;11.00;11.00;;;;;;;;5081833;27;45341;-75
2022/08/25 06:12:10;;;;;;;;;12.50;11.50;;;;;;;;5096403;27;45352;-75
2022/08/25 06:14:35;;;;;;;;;12.00;12.00;;;;;;;;5096456;27;45324;-74
2022/08/25 06:17:01;;;;;;;;;13.50;13.50;;;;;;;;5085121;27;45209;-74
2022/08/25 06:19:26;;;;;;;;;14.50;13.75;;;;;;;;5095874;27;46857;-75
2022/08/25 06:21:55;;;;;;;;;18.00;16.00;;;;;;;;5095624;27;45525;-75
2022/08/25 06:24:20;;;;;;;;;14.75;14.50;;;;;;;;5090476;27;45356;-74
2022/08/25 06:26:45;;;;;;;;;13.00;13.00;;;;;;;;5092030;27;45366;-73
2022/08/25 06:29:12;;;;;;;;;10.33;10.33;;;;;;;;5086056;27;45301;-73
2022/08/25 06:31:38;;;;;;;;;11.67;11.67;;;;;;;;5095837;27;45360;-73
2022/08/25 06:34:03;;;;;;;;;9.00;9.00;;;;;;;;5083082;27;45456;-73
2022/08/25 06:36:29;;;;;;;;;11.00;11.00;;;;;;;;5091610;27;45573;-73
2022/08/25 06:38:54;;;;;;;;;7.00;7.00;;;;;;;;5097767;27;47145;-73
2022/08/25 06:41:19;;;;;;;;;7.00;6.33;;;;;;;;5099441;27;45303;-73
2022/08/25 06:43:44;;;;;;;;;6.00;6.00;;;;;;;;5099462;27;45413;-73
2022/08/25 06:46:28;;;;;;;;;7.00;6.00;;;;;;;;5099300;27;45401;-73
2022/08/25 06:48:55;;;;;;;;;7.00;5.00;;;;;;;;5099372;27;46948;-73
2022/08/25 06:51:20;;;;;;;;;4.33;4.33;;;;;;;;5099196;27;45461;-73
2022/08/25 06:53:47;;;;;;;;;6.00;6.00;;;;;;;;5097959;27;45433;-73
2022/08/25 06:56:13;;;;;;;;;6.00;6.00;;;;;;;;5095820;27;45392;-73
2022/08/25 06:58:39;;;;;;;;;4.67;4.00;;;;;;;;5090921;27;47091;-73
2022/08/25 07:01:22;;;;;;;;;5.00;5.00;;;;;;;;5093113;27;45435;-73
2022/08/25 07:03:48;;;;;;;;;4.67;4.67;;;;;;;;5097046;27;45466;-73
2022/08/25 07:06:14;;;;;;;;;6.67;4.00;;;;;;;;5098632;27;45322;-73
2022/08/25 07:08:39;;;;;;;;;6.00;5.00;;;;;;;;5086506;27;45419;-73
2022/08/25 07:11:05;;;;;;;;;4.00;4.00;;;;;;;;5085723;27;45335;-73
2022/08/25 07:13:30;;;;;;;;;6.00;6.00;;;;;;;;5097865;27;45518;-73
2022/08/25 07:15:56;;;;;;;;;6.00;6.00;;;;;;;;5091076;27;45414;-73
2022/08/25 07:18:21;;;;;;;;;5.00;5.00;;;;;;;;5095504;27;46246;-73
2022/08/25 07:20:46;;;;;;;;;4.00;4.00;;;;;;;;5098551;27;45405;-73
2022/08/25 07:23:12;;;;;;;;;5.00;5.00;;;;;;;;5098940;27;45390;-73
2022/08/25 07:25:37;;;;;;;;;4.00;4.00;;;;;;;;5088346;27;45372;-73
2022/08/25 07:28:02;;;;;;;;;6.67;5.67;;;;;;;;5091629;27;46127;-73
2022/08/25 07:30:28;;;;;;;;;5.00;5.00;;;;;;;;5092680;27;45389;-73
2022/08/25 07:32:53;;;;;;;;;5.33;5.33;;;;;;;;5066493;27;45309;-73
2022/08/25 07:35:22;;;;;;;;;5.00;5.00;;;;;;;;5095855;27;45305;-73
2022/08/25 07:37:49;;;;;;;;;3.00;3.00;;;;;;;;5097281;27;45442;-73
2022/08/25 07:40:20;;;;;;;;;3.33;3.33;;;;;;;;5089879;27;45382;-73
2022/08/25 07:42:45;;;;;;;;;4.67;4.67;;;;;;;;5083285;27;45491;-73
2022/08/25 07:45:11;;;;;;;;;5.00;3.33;;;;;;;;5093350;27;45366;-73
2022/08/25 07:47:37;;;;;;;;;3.33;3.33;;;;;;;;5085166;27;46919;-73
2022/08/25 07:50:03;;;;;;;;;3.00;3.00;;;;;;;;5071163;28;45433;-73
2022/08/25 07:52:28;;;;;;;;;4.33;4.33;;;;;;;;5091874;27;45344;-73
2022/08/25 07:54:54;;;;;;;;;4.33;4.33;;;;;;;;5092786;27;45513;-73
2022/08/25 07:57:21;;;;;;;;;3.67;3.67;;;;;;;;5098349;27;46876;-73
2022/08/25 07:59:46;;;;;;;;;5.33;5.33;;;;;;;;5091620;27;45429;-73
2022/08/25 08:02:12;;;;;;;;;3.33;3.33;;;;;;;;5097860;27;45367;-72
2022/08/25 08:04:37;;;;;;;;;4.00;4.00;;;;;;;;5098154;27;45501;-73
2022/08/25 08:07:03;;;;;;;;;4.00;4.00;;;;;;;;5098244;27;46193;-73
2022/08/25 08:09:30;;;;;;;;;5.00;4.00;;;;;;;;5098181;27;45388;-73
2022/08/25 08:11:55;;;;;;;;;4.00;4.00;;;;;;;;5098150;27;45307;-73
2022/08/25 08:14:20;;;;;;;;;3.67;3.33;;;;;;;;5094431;27;45299;-72
2022/08/25 08:16:45;;;;;;;;;3.00;3.00;;;;;;;;5084249;27;47000;-73
2022/08/25 08:19:11;;;;;;;;;5.33;5.33;;;;;;;;5088185;27;45241;-73
2022/08/25 08:21:37;;;;;;;;;4.00;4.00;;;;;;;;5093662;27;45584;-73
2022/08/25 08:24:03;;;;;;;;;5.33;4.00;;;;;;;;5093937;27;45279;-73
2022/08/25 08:26:29;;;;;;;;;3.00;3.00;;;;;;;;5091415;27;45402;-73
2022/08/25 08:28:54;;;;;;;;;3.00;3.00;;;;;;;;5097614;27;45465;-73
2022/08/25 08:31:21;;;;;;;;;4.00;4.00;;;;;;;;5097596;27;45326;-72
2022/08/25 08:33:47;;;;;;;;;2.67;2.67;;;;;;;;5083460;27;46705;-73
2022/08/25 08:36:13;;;;;;;;;2.00;2.00;;;;;;;;5083251;27;45557;-73
2022/08/25 08:38:39;;;;;;;;;2.33;2.33;;;;;;;;5098053;27;45454;-73
2022/08/25 08:44:14;;;;;;;;;3.00;3.00;;;;;;;;5079797;27;45528;-73
2022/08/25 08:46:48;;;;;;;;;3.33;3.33;;;;;;;;5071865;27;47150;-73
2022/08/25 08:49:33;;;;;;;;;4.00;3.00;;;;;;;;5097375;27;45280;-73
2022/08/25 08:52:00;;;;;;;;;3.00;3.00;;;;;;;;5078626;27;45339;-73
2022/08/25 08:54:28;;;;;;;;;3.00;3.00;;;;;;;;5095320;27;45460;-73
2022/08/25 08:56:59;;;;;;;;;4.33;3.00;;;;;;;;5097319;27;46273;-72
2022/08/25 08:59:27;;;;;;;;;3.67;3.67;;;;;;;;5079799;27;45395;-74
2022/08/25 09:01:58;;;;;;;;;1.67;1.67;;;;;;;;5092360;27;45513;-73
2022/08/25 09:04:23;;;;;;;;;2.67;2.67;;;;;;;;5111401;27;45329;-73
2022/08/25 09:06:49;;;;;;;;;4.00;4.00;;;;;;;;5117696;27;45325;-73
2022/08/25 09:09:18;;;;;;;;;3.00;3.00;;;;;;;;5106452;27;45317;-73
2022/08/25 09:11:50;;;;;;;;;2.00;1.67;;;;;;;;5115919;27;45412;-73
2022/08/25 09:14:24;;;;;;;;;3.00;3.00;;;;;;;;5117441;27;45334;-73
2022/08/25 09:16:58;;;;;;;;;3.00;3.00;;;;;;;;5105539;27;46419;-73
2022/08/25 09:19:30;;;;;;;;;2.33;2.33;;;;;;;;5117455;27;45432;-73
2022/08/25 09:22:07;;;;;;;;;4.00;4.00;;;;;;;;5103170;27;45449;-73
2022/08/25 09:24:32;;;;;;;;;3.00;3.00;;;;;;;;5100739;27;45361;-73
2022/08/25 09:27:00;;;;;;;;;2.33;2.33;;;;;;;;5103320;27;46208;-73
2022/08/25 09:29:29;;;;;;;;;3.00;3.00;;;;;;;;5088391;27;45355;-73
2022/08/25 09:31:57;;;;;;;;;3.67;3.00;;;;;;;;5108723;27;45359;-73
2022/08/25 09:34:27;;;;;;;;;2.67;2.67;;;;;;;;5115879;27;45316;-73
2022/08/25 09:36:52;;;;;;;;;3.67;3.00;;;;;;;;5100702;27;45341;-73
2022/08/25 09:39:18;;;;;;;;;4.00;3.67;;;;;;;;5114108;27;45398;-73
2022/08/25 09:41:46;;;;;;;;;3.00;3.00;;;;;;;;5106792;27;45322;-73
2022/08/25 09:44:18;;;;;;;;;2.00;2.00;;;;;;;;5116791;27;45332;-73
2022/08/25 09:47:00;;;;;;;;;1.67;1.67;;;;;;;;5117095;27;46287;-73
2022/08/25 09:49:30;;;;;;;;;2.67;2.67;;;;;;;;5116993;27;45413;-73
2022/08/25 09:52:14;;;;;;;;;2.67;2.67;;;;;;;;5106809;27;45325;-73
2022/08/25 09:54:40;;;;;;;;;2.67;2.67;;;;;;;;5111469;27;45373;-73
2022/08/25 09:57:06;;;;;;;;;2.00;2.00;;;;;;;;5116654;27;47282;-73
2022/08/25 09:59:33;;;;;;;;;1.33;1.33;;;;;;;;5101860;27;45373;-73
2022/08/25 10:01:59;;;;;;;;;2.67;2.00;;;;;;;;5109173;27;45357;-72
2022/08/25 10:04:32;;;;;;;;;4.00;2.33;;;;;;;;5110772;27;45465;-73
2022/08/25 10:06:59;;;;;;;;;3.33;3.33;;;;;;;;5116677;27;46341;-73
2022/08/25 10:09:31;;;;;;;;;2.33;2.33;;;;;;;;5116939;27;45336;-73
2022/08/25 10:11:59;;;;;;;;;2.00;2.00;;;;;;;;5116385;27;45356;-73
2022/08/25 10:14:28;;;;;;;;;2.33;2.33;;;;;;;;5108665;27;45442;-73
2022/08/25 10:17:10;;;;;;;;;3.00;2.00;;;;;;;;5105258;27;45479;-73
2022/08/25 10:19:35;;;;;;;;;2.00;2.00;;;;;;;;5116526;27;45240;-73
2022/08/25 10:22:19;;;;;;;;;2.67;2.67;;;;;;;;5102149;27;45359;-74
2022/08/25 10:24:44;;;;;;;;;2.67;2.67;;;;;;;;5106849;27;45383;-73
2022/08/25 10:27:12;;;;;;;;;3.00;3.00;;;;;;;;5115349;27;46107;-72
2022/08/25 10:29:58;;;;;;;;;2.00;2.00;;;;;;;;5108135;27;45290;-73
2022/08/25 10:32:36;;;;;;;;;2.00;2.00;;;;;;;;5115249;27;45468;-73
2022/08/25 10:35:06;;;;;;;;;3.00;3.00;;;;;;;;5114204;27;45462;-73
2022/08/25 10:37:41;;;;;;;;;1.33;1.33;;;;;;;;5103082;27;46204;-73
2022/08/25 10:40:24;;;;;;;;;3.00;2.00;;;;;;;;5110834;27;45377;-73
2022/08/25 10:43:10;;;;;;;;;3.00;2.00;;;;;;;;5114226;27;45449;-73
2022/08/25 10:45:47;;;;;;;;;1.33;1.33;;;;;;;;5114300;27;45459;-72
2022/08/25 10:48:31;;;;;;;;;2.00;2.00;;;;;;;;5116259;27;47350;-72
2022/08/25 10:51:15;;;;;;;;;1.33;1.33;;;;;;;;5107037;27;45331;-73
2022/08/25 10:53:43;;;;;;;;;2.33;2.33;;;;;;;;5116553;27;45345;-73
2022/08/25 10:56:23;;;;;;;;;1.33;1.33;;;;;;;;5110333;27;45581;-73
2022/08/25 10:58:58;;;;;;;;;0.33;0.33;;;;;;;;5105832;27;47183;-73
2022/08/25 11:01:43;;;;;;;;;2.00;2.00;;;;;;;;5109921;27;45320;-73
2022/08/25 11:04:11;;;;;;;;;2.00;2.00;;;;;;;;5116215;27;45384;-73
2022/08/25 11:06:40;;;;;;;;;3.67;2.00;;;;;;;;5114012;27;45276;-73
2022/08/25 11:09:07;;;;;;;;;4.00;2.33;;;;;;;;5105933;27;46246;-73
2022/08/25 11:11:44;;;;;;;;;1.00;1.00;;;;;;;;5112837;27;45532;-73
2022/08/25 11:14:26;;;;;;;;;2.00;2.00;;;;;;;;5095456;27;45469;-73
2022/08/25 11:16:54;;;;;;;;;2.00;2.00;;;;;;;;5103046;27;45251;-73
2022/08/25 11:19:29;;;;;;;;;2.00;2.00;;;;;;;;5114414;27;46099;-73
2022/08/25 11:22:09;;;;;;;;;1.67;1.67;;;;;;;;5101406;27;45243;-73
2022/08/25 11:24:35;;;;;;;;;1.00;1.00;;;;;;;;5107463;27;45237;-73
2022/08/25 11:27:03;;;;;;;;;1.00;1.00;;;;;;;;5116803;27;45417;-73
2022/08/25 11:29:31;;;;;;;;;1.67;1.67;;;;;;;;5117880;27;46370;-73
2022/08/25 11:31:58;;;;;;;;;2.00;2.00;;;;;;;;5119172;27;45267;-73
2022/08/25 11:34:25;;;;;;;;;2.00;2.00;;;;;;;;5119412;27;45546;-73
2022/08/25 11:36:53;;;;;;;;;1.67;1.67;;;;;;;;5114757;27;45416;-73
2022/08/25 11:39:44;;;;;;;;;2.00;2.00;;;;;;;;5118782;27;46376;-73
2022/08/25 11:42:19;;;;;;;;;0.67;0.67;;;;;;;;5081471;27;45538;-81
2022/08/25 11:44:54;;;;;;;;;0.33;0.33;;;;;;;;5094391;27;45623;-74
2022/08/25 11:47:25;;;;;;;;;1.00;1.00;;;;;;;;5096664;27;45288;-72
2022/08/25 11:49:57;;;;;;;;;0.67;0.67;;;;;;;;5081453;27;46174;-72
2022/08/25 11:52:37;;;;;;;;;0.00;0.00;;;;;;;;5094781;27;45666;-72
2022/08/25 11:55:13;;;;;;;;;0.00;0.00;;;;;;;;5092654;27;45516;-72
2022/08/25 11:57:40;;;;;;;;;0.00;0.00;;;;;;;;5091953;27;45388;-72
2022/08/25 12:00:14;;;;;;;;;0.00;0.00;;;;;;;;5077645;27;45359;-72
2022/08/25 12:02:39;;;;;;;;;0.00;0.00;;;;;;;;5080725;27;45575;-72
2022/08/25 12:05:07;;;;;;;;;0.33;0.00;;;;;;;;5078268;27;45521;-72
2022/08/25 12:08:37;;;;;;;;;0.00;0.00;;;;;;;;5090455;27;45489;-73
2022/08/25 12:10:56;;;;;;;;;0.33;0.00;;;;;;;;5073992;27;45833;-73
2022/08/25 12:13:40;;;;;;;;;0.00;0.00;;;;;;;;5079457;27;45410;-73
2022/08/25 12:16:05;;;;;;;;;0.00;0.00;;;;;;;;5075481;27;45388;-73
2022/08/25 12:18:30;;;;;;;;;0.00;0.00;;;;;;;;5078963;27;45852;-72
2022/08/25 12:20:56;;;;;;;;;0.00;0.00;;;;;;;;5113698;27;46243;-73
2022/08/25 12:23:30;;;;;;;;;0.00;0.00;;;;;;;;5097545;27;45331;-73
2022/08/25 12:25:57;;;;;;;;;0.00;0.00;;;;;;;;5096205;27;45412;-73
2022/08/25 12:28:46;;;;;;;;;0.00;0.00;;;;;;;;5097321;27;45450;-72
2022/08/25 12:31:34;;;;;;;;;0.00;0.00;;;;;;;;5088744;27;45785;-72
2022/08/25 12:34:00;;;;;;;;;0.00;0.00;;;;;;;;5074312;27;45506;-73
2022/08/25 12:36:28;;;;;;;;;0.00;0.00;;;;;;;;5074550;27;45523;-72
2022/08/25 12:38:53;;;;;;;;;1.33;0.00;;;;;;;;5074107;27;45493;-73
2022/08/25 12:41:30;;;;;;;;;0.00;0.00;;;;;;;;5074423;27;47180;-73
2022/08/25 12:44:09;;;;;;;;;0.00;0.00;;;;;;;;5074676;27;45419;-74
2022/08/25 12:46:36;;;;;;;;;0.00;0.00;;;;;;;;5074583;27;45407;-73
2022/08/25 12:49:11;;;;;;;;;0.00;0.00;;;;;;;;5074117;27;45451;-72
2022/08/25 12:51:39;;;;;;;;;0.00;0.00;;;;;;;;5074042;27;47160;-73
2022/08/25 12:54:21;;;;;;;;;0.00;0.00;;;;;;;;5072904;27;45430;-73
2022/08/25 12:56:51;;;;;;;;;0.00;0.00;;;;;;;;5072661;27;45592;-74
2022/08/25 12:59:16;;;;;;;;;0.00;0.00;;;;;;;;5078269;27;45964;-73
2022/08/25 13:02:01;;;;;;;;;0.00;0.00;;;;;;;;5089572;27;46169;-73
2022/08/25 13:04:29;;;;;;;;;0.00;0.00;;;;;;;;5094969;27;45401;-73
2022/08/25 13:06:59;;;;;;;;;0.00;0.00;;;;;;;;5077337;27;45533;-74
2022/08/25 13:09:42;;;;;;;;;0.00;0.00;;;;;;;;5074520;28;45487;-74
2022/08/25 13:12:13;;;;;;;;;0.33;0.00;;;;;;;;5096062;27;46202;-73
2022/08/25 13:14:42;;;;;;;;;0.00;0.00;;;;;;;;5097277;27;45429;-74
2022/08/25 13:17:08;;;;;;;;;0.00;0.00;;;;;;;;5096158;27;45356;-73
2022/08/25 13:19:33;;;;;;;;;0.00;0.00;;;;;;;;5097144;27;45544;-74
2022/08/25 13:22:01;;;;;;;;;0.00;0.00;;;;;;;;5096191;27;46085;-74
2022/08/25 13:24:28;;;;;;;;;0.00;0.00;;;;;;;;5115937;27;45385;-77
2022/08/25 13:27:05;;;;;;;;;0.00;0.00;;;;;;;;5095118;27;45403;-73
2022/08/25 13:29:32;;;;;;;;;0.00;0.00;;;;;;;;5096313;27;45638;-73
2022/08/25 13:31:59;;;;;;;;;0.00;0.00;;;;;;;;5096225;27;45679;-74
2022/08/25 13:34:26;;;;;;;;;1.67;0.67;;;;;;;;5096091;27;45426;-73
2022/08/25 13:39:36;;;;;;;;;0.67;0.00;;;;;;;;5096994;27;45376;-75
2022/08/25 13:42:04;;;;;;;;;1.67;0.00;;;;;;;;5101878;27;45415;-73
2022/08/25 13:44:31;;;;;;;;;0.00;0.00;;;;;;;;5104948;27;45462;-72
2022/08/25 13:47:05;;;;;;;;;1.00;0.00;;;;;;;;5095565;27;45346;-73
2022/08/25 13:49:31;;;;;;;;;0.00;0.00;;;;;;;;5096385;27;45421;-72
2022/08/25 13:51:56;;;;;;;;;0.00;0.00;;;;;;;;5081605;27;45676;-72
2022/08/25 13:54:39;;;;;;;;;0.00;0.00;;;;;;;;5096363;27;45403;-72
2022/08/25 13:57:25;;;;;;;;;0.00;0.00;;;;;;;;5096585;27;45378;-72
2022/08/25 13:59:52;;;;;;;;;0.00;0.00;;;;;;;;5095949;27;45280;-74
2022/08/25 14:02:41;;;;;;;;;1.00;0.67;;;;;;;;5088582;27;47203;-75
2022/08/25 14:05:06;;;;;;;;;0.00;0.00;;;;;;;;5064070;28;45565;-74
2022/08/25 14:07:32;;;;;;;;;0.00;0.00;;;;;;;;5075756;27;45413;-74
2022/08/25 14:10:05;;;;;;;;;0.33;0.00;;;;;;;;5075383;28;45360;-74
2022/08/25 14:12:32;;;;;;;;;0.00;0.00;;;;;;;;5075733;27;46389;-74
2022/08/25 14:15:03;;;;;;;;;1.00;0.00;;;;;;;;5075745;27;45437;-74
2022/08/25 14:17:29;;;;;;;;;0.00;0.00;;;;;;;;5072737;27;45399;-74
2022/08/25 14:19:55;;;;;;;;;0.00;0.00;;;;;;;;5075153;28;45356;-73
2022/08/25 14:22:20;;;;;;;;;1.00;1.00;;;;;;;;5075218;27;46270;-74
2022/08/25 14:24:45;;;;;;;;;3.00;0.00;;;;;;;;5075679;28;45553;-74
2022/08/25 14:27:10;;;;;;;;;0.00;0.00;;;;;;;;5075847;28;45478;-74
2022/08/25 14:29:36;;;;;;;;;0.00;0.00;;;;;;;;5075031;28;45479;-74
2022/08/25 14:32:01;;;;;;;;;0.00;0.00;;;;;;;;5075760;28;45420;-73
2022/08/25 14:34:29;;;;;;;;;0.00;0.00;;;;;;;;5074978;27;45450;-74
2022/08/25 14:36:54;;;;;;;;;0.33;0.33;;;;;;;;5075638;28;45426;-73
2022/08/25 14:39:19;;;;;;;;;0.00;0.00;;;;;;;;5075584;28;45401;-73
2022/08/25 14:41:45;;;;;;;;;0.00;0.00;;;;;;;;5075115;27;47337;-73
2022/08/25 14:44:11;;;;;;;;;2.00;0.00;;;;;;;;5075395;28;45222;-73
2022/08/25 14:46:39;;;;;;;;;0.00;0.00;;;;;;;;5075132;27;45248;-73
2022/08/25 14:49:06;;;;;;;;;0.00;0.00;;;;;;;;5075071;27;45329;-74
2022/08/25 14:51:32;;;;;;;;;0.00;0.00;;;;;;;;5074955;28;46977;-74
2022/08/25 14:53:59;;;;;;;;;0.00;0.00;;;;;;;;5075307;27;45364;-74
2022/08/25 14:56:24;;;;;;;;;0.00;0.00;;;;;;;;5074940;27;45332;-73
2022/08/25 14:58:49;;;;;;;;;0.00;0.00;;;;;;;;5077364;27;45344;-74
2022/08/25 15:01:16;;;;;;;;;1.00;0.00;;;;;;;;5078866;27;45933;-73
2022/08/25 15:03:45;;;;;;;;;0.00;0.00;;;;;;;;5096615;27;45453;-73